Mendoza, Argentina
Current Conditions -  °F | °C
As of 2:00 PM on Sunday 21 Dec 2014 (Local Time) from SAME Reporting Station
Scattered Clouds Scattered Clouds  
Wind Chill: 63°   Ceiling: Unl
Heat Index: 63°   Visibility: 6mi
Dew Point: 25°   Wind: 8mph
Humidity: 24%   Direction: 90°E
Pressure: 29.97"   Gusts: NA
Location:  32.89°S, 68.83°W
Report Text: SAME 211700Z 09007KT 9999 FEW040 SCT04517/M04 Q1015
Loading
Personal Weather Stations






























Interactive Weather Map New forecast layout! Learn more

10-Day Weather Forecast

Advertisements
Track Severe Weather on mobile